createdAt,value
2023-03-01T00:01:42.610Z,6.17
2023-03-01T00:04:10.137Z,7.53
2023-03-01T00:06:38.334Z,5.70
2023-03-01T00:09:08.392Z,6.50
2023-03-01T00:11:36.023Z,6.07
2023-03-01T00:14:05.830Z,7.70
2023-03-01T00:16:41.646Z,6.43
2023-03-01T00:19:16.612Z,6.50
2023-03-01T00:21:43.972Z,7.43
2023-03-01T00:24:12.055Z,6.23
2023-03-01T00:26:39.580Z,8.07
2023-03-01T00:29:07.133Z,6.70
2023-03-01T00:31:35.816Z,6.50
2023-03-01T00:34:06.264Z,5.10
2023-03-01T00:36:37.401Z,8.33
2023-03-01T00:39:10.208Z,6.63
2023-03-01T00:41:37.246Z,6.80
2023-03-01T00:44:04.688Z,6.93
2023-03-01T00:46:32.170Z,7.53
2023-03-01T00:49:02.896Z,7.03
2023-03-01T00:51:30.445Z,6.63
2023-03-01T00:54:01.090Z,6.60
2023-03-01T00:56:29.284Z,8.00
2023-03-01T00:58:57.229Z,6.80
2023-03-01T01:01:32.103Z,6.33
2023-03-01T01:04:04.223Z,6.57
2023-03-01T01:06:38.799Z,6.40
2023-03-01T01:09:08.184Z,6.00
2023-03-01T01:11:37.289Z,7.03
2023-03-01T01:14:04.723Z,5.93
2023-03-01T01:16:32.221Z,6.70
2023-03-01T01:18:59.714Z,6.07
2023-03-01T01:21:29.132Z,7.40
2023-03-01T01:23:57.860Z,7.63
2023-03-01T01:26:31.268Z,6.57
2023-03-01T01:28:59.867Z,7.47
2023-03-01T01:31:29.037Z,6.40
2023-03-01T01:33:57.475Z,5.00
2023-03-01T01:36:25.275Z,7.30
2023-03-01T01:38:52.880Z,7.27
2023-03-01T01:41:21.212Z,6.50
2023-03-01T01:44:28.108Z,5.97
2023-03-01T01:47:03.569Z,5.87
2023-03-01T01:49:46.213Z,7.70
2023-03-01T01:52:31.652Z,6.40
2023-03-01T01:55:08.209Z,7.53
2023-03-01T01:57:39.597Z,7.07
2023-03-01T02:00:14.393Z,5.47
2023-03-01T02:02:43.939Z,6.83
2023-03-01T02:05:37.798Z,5.97
2023-03-01T02:08:05.050Z,5.90
2023-03-01T02:10:35.027Z,6.03
2023-03-01T02:13:04.268Z,5.17
2023-03-01T02:15:36.712Z,6.80
2023-03-01T02:18:06.669Z,7.63
2023-03-01T02:20:50.359Z,5.97
2023-03-01T02:23:19.053Z,6.57
2023-03-01T02:26:22.141Z,7.10
2023-03-01T02:28:49.573Z,8.80
2023-03-01T02:31:40.407Z,9.17
2023-03-01T02:34:11.974Z,6.33
2023-03-01T02:36:48.774Z,5.73
2023-03-01T02:39:26.420Z,6.37
2023-03-01T02:41:56.034Z,6.30
2023-03-01T02:44:24.060Z,7.83
2023-03-01T02:46:55.515Z,5.70
2023-03-01T02:49:35.455Z,6.27
2023-03-01T02:52:36.244Z,6.80
2023-03-01T02:55:12.781Z,8.47
2023-03-01T02:57:44.713Z,7.17
2023-03-01T03:00:22.548Z,7.43
2023-03-01T03:02:54.630Z,6.60
2023-03-01T03:05:30.617Z,7.30
2023-03-01T03:08:01.771Z,6.87
2023-03-01T03:10:40.574Z,6.17
2023-03-01T03:13:12.048Z,6.37
2023-03-01T03:15:40.171Z,7.63
2023-03-01T03:18:13.414Z,7.03
2023-03-01T03:20:42.597Z,5.67
2023-03-01T03:23:09.877Z,6.30
2023-03-01T03:25:38.849Z,7.33
2023-03-01T03:28:10.959Z,7.17
2023-03-01T03:30:41.401Z,6.77
2023-03-01T03:33:13.126Z,5.60
2023-03-01T03:35:48.323Z,5.03
2023-03-01T03:38:18.422Z,7.50
2023-03-01T03:40:56.957Z,7.23
2023-03-01T03:43:24.510Z,6.03
2023-03-01T03:45:53.004Z,6.07
2023-03-01T03:48:21.141Z,6.23
2023-03-01T03:50:51.734Z,7.73
2023-03-01T03:53:20.192Z,7.73
2023-03-01T03:55:50.143Z,6.43
2023-03-01T03:58:20.570Z,10.23
2023-03-01T04:00:51.177Z,5.93
2023-03-01T04:03:20.957Z,5.33
2023-03-01T04:05:48.368Z,6.90
2023-03-01T04:08:15.559Z,5.53
2023-03-01T04:10:46.324Z,9.30
2023-03-01T04:13:20.091Z,5.10
2023-03-01T04:15:50.287Z,9.17
2023-03-01T04:18:19.636Z,5.13
2023-03-01T04:20:47.219Z,7.53
2023-03-01T04:23:19.874Z,7.17
2023-03-01T04:26:05.239Z,6.03
2023-03-01T04:28:35.735Z,7.90
2023-03-01T04:31:22.442Z,7.83
2023-03-01T04:33:53.853Z,6.13
2023-03-01T04:36:25.815Z,7.03
2023-03-01T04:38:53.566Z,6.57
2023-03-01T04:41:24.991Z,6.13
2023-03-01T04:43:52.091Z,7.47
2023-03-01T04:46:21.293Z,8.03
2023-03-01T04:48:48.931Z,5.93
2023-03-01T04:51:16.834Z,6.03
2023-03-01T04:53:45.041Z,7.83
2023-03-01T04:56:14.718Z,7.13
2023-03-01T04:58:42.269Z,7.87
2023-03-01T05:01:16.293Z,7.67
2023-03-01T05:03:52.041Z,6.40
2023-03-01T05:06:20.668Z,6.03
2023-03-01T05:08:47.878Z,6.80
2023-03-01T05:11:15.072Z,6.90
2023-03-01T05:13:42.583Z,6.40
2023-03-01T05:16:13.922Z,7.90
2023-03-01T05:18:41.768Z,6.13
2023-03-01T05:21:17.113Z,8.73
2023-03-01T05:23:44.780Z,8.27
2023-03-01T05:26:27.335Z,9.77
2023-03-01T05:28:59.844Z,8.83
2023-03-01T05:31:27.860Z,6.70
2023-03-01T05:33:55.022Z,9.77
2023-03-01T05:36:22.130Z,6.83
2023-03-01T05:38:49.248Z,9.73
2023-03-01T05:41:17.984Z,8.57
2023-03-01T05:43:46.023Z,7.87
2023-03-01T05:46:14.350Z,9.57
2023-03-01T05:48:41.768Z,9.57
2023-03-01T05:51:08.977Z,9.53
2023-03-01T05:53:36.446Z,8.60
2023-03-01T05:56:07.141Z,9.70
2023-03-01T05:58:34.273Z,7.47
2023-03-01T06:01:01.516Z,11.13
2023-03-01T06:03:28.746Z,7.83
2023-03-01T06:05:59.632Z,11.13
2023-03-01T06:08:28.305Z,6.90
2023-03-01T06:10:55.700Z,8.70
2023-03-01T06:13:24.513Z,7.37
2023-03-01T06:15:52.036Z,8.90
2023-03-01T06:18:19.288Z,13.77
2023-03-01T06:20:46.378Z,10.07
2023-03-01T06:23:13.584Z,8.90
2023-03-01T06:25:40.696Z,9.67
2023-03-01T06:28:07.866Z,20.60
2023-03-01T06:30:35.084Z,9.93
2023-03-01T06:33:04.132Z,11.50
2023-03-01T06:35:32.051Z,14.40
2023-03-01T06:38:02.311Z,10.43
2023-03-01T06:40:30.762Z,8.87
2023-03-01T06:42:59.872Z,9.60
2023-03-01T06:45:27.092Z,10.30
2023-03-01T06:48:02.587Z,12.30
2023-03-01T06:50:29.976Z,11.90
2023-03-01T06:52:58.833Z,9.83
2023-03-01T06:55:26.342Z,9.60
2023-03-01T06:58:01.473Z,10.63
2023-03-01T07:00:29.094Z,9.93
2023-03-01T07:02:59.495Z,10.73
2023-03-01T07:05:26.996Z,10.67
2023-03-01T07:07:56.003Z,10.20
2023-03-01T07:10:23.557Z,16.20
2023-03-01T07:12:50.793Z,10.40
2023-03-01T07:15:18.062Z,16.27
2023-03-01T07:17:45.809Z,13.53
2023-03-01T07:20:13.378Z,15.47
2023-03-01T07:22:43.833Z,15.97
2023-03-01T07:25:12.073Z,16.23
2023-03-01T07:27:39.299Z,18.03
2023-03-01T07:30:07.477Z,15.67
2023-03-01T07:32:34.782Z,20.23
2023-03-01T07:35:02.067Z,25.27
2023-03-01T07:37:29.156Z,22.47
2023-03-01T07:39:56.321Z,28.30
2023-03-01T07:42:23.444Z,29.10
2023-03-01T07:44:50.582Z,24.80
2023-03-01T07:47:18.065Z,33.27
2023-03-01T07:49:45.243Z,33.67
2023-03-01T07:52:13.005Z,39.00
2023-03-01T07:54:40.588Z,43.73
2023-03-01T07:57:07.792Z,46.00
2023-03-01T07:59:34.916Z,49.87
2023-03-01T08:02:02.165Z,58.30
2023-03-01T08:04:29.456Z,66.10
2023-03-01T08:06:57.145Z,77.50
2023-03-01T08:09:24.360Z,64.80
2023-03-01T08:11:51.657Z,81.57
2023-03-01T08:14:18.987Z,103.97
2023-03-01T08:16:46.172Z,77.17
2023-03-01T08:19:13.638Z,71.80
2023-03-01T08:21:41.030Z,78.37
2023-03-01T08:24:08.986Z,67.27
2023-03-01T08:26:36.218Z,60.60
2023-03-01T08:29:04.511Z,65.13
2023-03-01T08:31:37.641Z,62.30
2023-03-01T08:34:13.225Z,52.87
2023-03-01T08:36:43.387Z,51.67
2023-03-01T08:39:14.513Z,52.07
2023-03-01T08:41:42.511Z,49.90
2023-03-01T08:44:12.595Z,50.80
2023-03-01T08:46:42.003Z,55.13
2023-03-01T08:49:18.814Z,51.63
2023-03-01T08:51:47.716Z,55.50
2023-03-01T08:54:19.104Z,55.13
2023-03-01T08:56:46.791Z,52.47
2023-03-01T08:59:15.414Z,57.47
2023-03-01T09:01:45.746Z,55.73
2023-03-01T09:04:14.215Z,52.43
2023-03-01T09:06:41.528Z,52.80
2023-03-01T09:09:16.925Z,50.30
2023-03-01T09:11:47.214Z,45.87
2023-03-01T09:14:15.337Z,46.67
2023-03-01T09:16:42.874Z,46.93
2023-03-01T09:19:10.045Z,45.53
2023-03-01T09:21:40.979Z,47.90
2023-03-01T09:24:15.331Z,43.93
2023-03-01T09:26:43.562Z,46.33
2023-03-01T09:29:11.047Z,41.87
2023-03-01T09:31:39.196Z,37.93
2023-03-01T09:34:06.757Z,43.07
2023-03-01T09:36:34.648Z,36.60
2023-03-01T09:39:03.512Z,36.33
2023-03-01T09:42:02.946Z,38.63
2023-03-01T09:44:41.598Z,38.57
2023-03-01T09:47:25.447Z,41.30
2023-03-01T09:50:13.694Z,41.33
2023-03-01T09:53:14.734Z,33.83
2023-03-01T09:56:01.877Z,36.43
2023-03-01T09:58:55.219Z,40.63
2023-03-01T10:01:39.958Z,38.37
2023-03-01T10:04:28.969Z,38.47
2023-03-01T10:07:57.642Z,50.87
2023-03-01T10:10:38.326Z,41.10
2023-03-01T10:13:22.561Z,43.57
2023-03-01T10:15:57.226Z,40.60
2023-03-01T10:18:33.615Z,38.30
2023-03-01T10:21:29.405Z,43.03
2023-03-01T10:24:16.058Z,42.30
2023-03-01T10:26:54.398Z,39.47
2023-03-01T10:29:49.596Z,38.20
2023-03-01T10:32:18.841Z,38.00
2023-03-01T10:34:46.014Z,35.87
2023-03-01T10:37:23.010Z,44.60
2023-03-01T10:40:10.497Z,36.47
2023-03-01T10:42:50.269Z,41.40
2023-03-01T10:45:28.211Z,35.13
2023-03-01T10:48:29.353Z,41.03
2023-03-01T10:50:59.395Z,33.40
2023-03-01T10:53:34.126Z,34.03
2023-03-01T10:56:11.269Z,37.10
2023-03-01T10:58:41.394Z,33.50
2023-03-01T11:01:17.530Z,34.87
2023-03-01T11:03:44.827Z,37.07
2023-03-01T11:06:11.832Z,34.37
2023-03-01T11:08:48.128Z,36.80
2023-03-01T11:11:35.082Z,35.53
2023-03-01T11:14:26.988Z,33.63
2023-03-01T11:17:14.321Z,32.77
2023-03-01T11:19:43.684Z,31.53
2023-03-01T11:22:20.541Z,35.50
2023-03-01T11:25:07.086Z,31.33
2023-03-01T11:27:44.699Z,38.53
2023-03-01T11:30:14.774Z,34.33
2023-03-01T11:32:54.772Z,37.30
2023-03-01T11:35:27.688Z,36.57
2023-03-01T11:38:22.429Z,38.60
2023-03-01T11:41:04.629Z,36.87
2023-03-01T11:44:16.718Z,37.67
2023-03-01T11:47:05.891Z,35.60
2023-03-01T11:49:50.590Z,34.07
2023-03-01T11:52:36.995Z,33.30
2023-03-01T11:55:38.203Z,32.37
2023-03-01T11:58:53.629Z,34.57
2023-03-01T12:01:40.922Z,35.37
2023-03-01T12:04:46.567Z,34.20
2023-03-01T12:07:34.086Z,32.00
2023-03-01T12:10:36.880Z,36.47
2023-03-01T12:13:45.590Z,34.87
2023-03-01T12:16:39.949Z,38.10
2023-03-01T12:20:04.809Z,41.20
2023-03-01T12:23:11.431Z,41.30
2023-03-01T12:26:18.356Z,40.57
2023-03-01T12:29:16.509Z,37.67
2023-03-01T12:32:05.693Z,39.10
2023-03-01T12:35:04.112Z,45.03
2023-03-01T12:37:57.064Z,40.80
2023-03-01T12:41:04.335Z,39.43
2023-03-01T12:44:16.604Z,37.37
2023-03-01T12:47:16.884Z,35.67
2023-03-01T12:50:24.653Z,34.73
2023-03-01T12:52:56.925Z,33.23
2023-03-01T12:55:44.689Z,36.20
2023-03-01T12:58:50.609Z,33.33
2023-03-01T13:02:19.790Z,38.93
2023-03-01T13:05:34.537Z,34.70
2023-03-01T13:08:29.148Z,31.60
2023-03-01T13:11:07.286Z,33.77
2023-03-01T13:13:34.383Z,33.47
2023-03-01T13:16:30.747Z,32.67
2023-03-01T13:19:26.898Z,31.10
2023-03-01T13:21:55.801Z,33.90
2023-03-01T13:24:41.802Z,32.33
2023-03-01T13:27:12.268Z,32.23
2023-03-01T13:29:54.248Z,29.60
2023-03-01T13:32:43.054Z,31.90
2023-03-01T13:35:20.865Z,32.73
2023-03-01T13:37:49.023Z,30.93
2023-03-01T13:40:19.677Z,31.40
2023-03-01T13:43:05.724Z,30.20
2023-03-01T13:45:44.227Z,33.47
2023-03-01T13:48:30.571Z,30.47
2023-03-01T13:51:03.514Z,29.30
2023-03-01T13:53:36.354Z,28.20
2023-03-01T13:56:14.291Z,27.87
2023-03-01T13:59:03.265Z,30.10
2023-03-01T14:01:35.640Z,28.57
2023-03-01T14:04:26.558Z,33.30
2023-03-01T14:07:21.127Z,32.93
2023-03-01T14:10:06.909Z,34.47
2023-03-01T14:12:58.361Z,37.60
2023-03-01T14:15:37.213Z,39.50
2023-03-01T14:18:48.626Z,39.47
2023-03-01T14:21:17.124Z,39.60
2023-03-01T14:23:44.290Z,38.40
2023-03-01T14:26:13.208Z,42.30
2023-03-01T14:28:43.411Z,35.63
2023-03-01T14:31:47.093Z,37.07
2023-03-01T14:34:25.528Z,33.80
2023-03-01T14:36:52.784Z,37.57
2023-03-01T14:39:26.518Z,33.57
2023-03-01T14:41:53.966Z,63.13
2023-03-01T14:44:25.599Z,140.70
2023-03-01T14:46:58.148Z,31.33
2023-03-01T14:49:31.888Z,31.80
2023-03-01T14:52:04.597Z,29.20
2023-03-01T14:54:54.071Z,27.87
2023-03-01T14:57:25.312Z,26.00
2023-03-01T15:00:11.090Z,24.57
2023-03-01T15:02:38.711Z,23.90
2023-03-01T15:05:08.883Z,24.10
2023-03-01T15:07:50.162Z,21.97
2023-03-01T15:10:26.895Z,25.20
2023-03-01T15:12:54.922Z,20.20
2023-03-01T15:15:36.858Z,25.47
2023-03-01T15:18:20.632Z,27.73
2023-03-01T15:20:51.829Z,25.20
2023-03-01T15:23:25.685Z,22.67
2023-03-01T15:25:57.470Z,28.47
2023-03-01T15:28:33.124Z,24.53
2023-03-01T15:31:22.057Z,23.83
2023-03-01T15:33:49.598Z,21.87
2023-03-01T15:36:48.150Z,21.83
2023-03-01T15:39:55.813Z,20.90
2023-03-01T15:42:28.922Z,21.13
2023-03-01T15:45:21.891Z,23.00
2023-03-01T15:48:06.084Z,22.40
2023-03-01T15:50:40.818Z,27.50
2023-03-01T15:53:15.387Z,23.53
2023-03-01T15:55:43.052Z,24.67
2023-03-01T15:58:22.604Z,21.73
2023-03-01T16:01:01.642Z,21.57
2023-03-01T16:03:30.168Z,19.63
2023-03-01T16:05:57.717Z,19.30
2023-03-01T16:08:24.739Z,19.60
2023-03-01T16:10:52.544Z,21.07
2023-03-01T16:13:20.285Z,21.77
2023-03-01T16:15:48.118Z,24.70
2023-03-01T16:18:15.424Z,21.80
2023-03-01T16:20:42.534Z,23.03
2023-03-01T16:23:11.922Z,21.53
2023-03-01T16:25:39.068Z,20.80
2023-03-01T16:28:10.021Z,20.40
2023-03-01T16:30:40.562Z,26.80
2023-03-01T16:33:24.166Z,25.33
2023-03-01T16:35:54.589Z,23.93
2023-03-01T16:38:21.664Z,30.20
2023-03-01T16:40:51.297Z,26.07
2023-03-01T16:43:18.429Z,33.00
2023-03-01T16:45:46.338Z,27.47
2023-03-01T16:48:13.869Z,25.57
2023-03-01T16:50:41.292Z,32.43
2023-03-01T16:53:08.402Z,23.57
2023-03-01T16:55:35.550Z,26.13
2023-03-01T16:58:02.923Z,21.10
2023-03-01T17:00:30.193Z,25.53
2023-03-01T17:02:58.786Z,21.97
2023-03-01T17:05:26.756Z,31.40
2023-03-01T17:07:56.589Z,21.43
2023-03-01T17:10:23.780Z,23.60
2023-03-01T17:12:51.286Z,27.27
2023-03-01T17:15:18.638Z,22.00
2023-03-01T17:17:45.721Z,18.80
2023-03-01T17:20:16.530Z,22.10
2023-03-01T17:22:44.423Z,31.00
2023-03-01T17:25:15.801Z,28.17
2023-03-01T17:27:43.162Z,26.90
2023-03-01T17:30:13.764Z,19.90
2023-03-01T17:32:41.701Z,22.07
2023-03-01T17:35:11.947Z,25.97
2023-03-01T17:37:40.494Z,31.83
2023-03-01T17:40:12.098Z,42.40
2023-03-01T17:42:41.562Z,33.10
2023-03-01T17:45:09.182Z,16.53
2023-03-01T17:47:36.419Z,28.73
2023-03-01T17:50:05.600Z,30.63
2023-03-01T17:52:32.808Z,21.47
2023-03-01T17:54:59.898Z,41.33
2023-03-01T17:57:27.287Z,29.67
2023-03-01T17:59:54.402Z,63.27
2023-03-01T18:02:21.790Z,40.63
2023-03-01T18:04:50.740Z,48.90
2023-03-01T18:07:17.805Z,57.67
2023-03-01T18:09:44.874Z,46.30
2023-03-01T18:12:14.624Z,24.70
2023-03-01T18:14:41.956Z,30.33
2023-03-01T18:17:12.016Z,69.20
2023-03-01T18:19:41.427Z,41.47
2023-03-01T18:22:09.319Z,25.83
2023-03-01T18:24:37.880Z,34.00
2023-03-01T18:27:06.034Z,43.63
2023-03-01T18:29:33.582Z,23.40
2023-03-01T18:32:01.532Z,50.30
2023-03-01T18:34:29.099Z,28.90
2023-03-01T18:37:08.855Z,25.67
2023-03-01T18:39:37.706Z,49.57
2023-03-01T18:42:05.190Z,40.73
2023-03-01T18:44:32.369Z,30.47
2023-03-01T18:46:59.454Z,35.73
2023-03-01T18:49:26.865Z,38.40
2023-03-01T18:51:54.354Z,27.93
2023-03-01T18:54:21.597Z,43.03
2023-03-01T18:56:48.745Z,38.00
2023-03-01T18:59:15.903Z,59.63
2023-03-01T19:01:43.423Z,38.73
2023-03-01T19:04:11.494Z,43.43
2023-03-01T19:06:39.087Z,49.43
2023-03-01T19:09:08.115Z,39.53
2023-03-01T19:11:35.698Z,49.23
2023-03-01T19:14:04.098Z,45.83
2023-03-01T19:16:33.628Z,37.53
2023-03-01T19:19:04.894Z,35.23
2023-03-01T19:21:33.261Z,38.30
2023-03-01T19:24:02.506Z,33.87
2023-03-01T19:26:31.251Z,34.50
2023-03-01T19:28:58.981Z,42.67
2023-03-01T19:31:29.265Z,34.07
2023-03-01T19:34:10.383Z,36.80
2023-03-01T19:36:42.606Z,46.77
2023-03-01T19:39:13.440Z,30.83
2023-03-01T19:41:42.237Z,30.50
2023-03-01T19:44:10.434Z,32.80
2023-03-01T19:46:37.887Z,38.47
2023-03-01T19:49:05.630Z,34.83
2023-03-01T19:51:35.531Z,31.93
2023-03-01T19:54:03.855Z,26.83
2023-03-01T19:56:31.447Z,37.37
2023-03-01T19:59:00.558Z,30.93
2023-03-01T20:01:33.020Z,39.07
2023-03-01T20:04:01.969Z,30.93
2023-03-01T20:06:30.172Z,44.67
2023-03-01T20:08:58.683Z,38.37
2023-03-01T20:11:25.840Z,32.40
2023-03-01T20:13:52.921Z,35.93
2023-03-01T20:16:24.667Z,39.07
2023-03-01T20:18:52.494Z,37.30
2023-03-01T20:21:24.478Z,36.50
2023-03-01T20:23:52.873Z,38.73
2023-03-01T20:26:22.480Z,38.80
2023-03-01T20:28:53.941Z,38.27
2023-03-01T20:31:23.980Z,40.73
2023-03-01T20:33:51.166Z,39.93
2023-03-01T20:36:18.344Z,42.93
2023-03-01T20:38:45.483Z,35.17
2023-03-01T20:41:14.229Z,35.30
2023-03-01T20:43:42.896Z,41.37
2023-03-01T20:46:12.954Z,42.07
2023-03-01T20:48:45.148Z,40.77
2023-03-01T20:51:14.017Z,40.00
2023-03-01T20:53:41.831Z,54.40
2023-03-01T20:56:17.147Z,34.43
2023-03-01T20:59:04.312Z,41.60
2023-03-01T21:01:31.954Z,51.83
2023-03-01T21:03:59.074Z,43.27
2023-03-01T21:06:26.258Z,48.47
2023-03-01T21:08:55.466Z,44.70
2023-03-01T21:11:25.341Z,48.97
2023-03-01T21:13:56.384Z,41.17
2023-03-01T21:16:24.114Z,73.80
2023-03-01T21:18:51.308Z,39.57
2023-03-01T21:21:22.214Z,68.10
2023-03-01T21:23:49.822Z,38.53
2023-03-01T21:26:24.328Z,51.30
2023-03-01T21:29:00.370Z,54.50
2023-03-01T21:31:34.983Z,63.53
2023-03-01T21:34:05.444Z,65.20
2023-03-01T21:36:34.705Z,144.70
2023-03-01T21:39:02.526Z,88.70
2023-03-01T21:41:33.417Z,79.73
2023-03-01T21:44:03.097Z,58.83
2023-03-01T21:46:33.846Z,59.97
2023-03-01T21:49:02.466Z,80.03
2023-03-01T21:51:30.500Z,51.13
2023-03-01T21:54:00.988Z,80.77
2023-03-01T21:56:31.901Z,81.50
2023-03-01T21:58:59.549Z,142.10
2023-03-01T22:01:28.692Z,74.87
2023-03-01T22:03:58.109Z,90.40
2023-03-01T22:06:35.012Z,112.87
2023-03-01T22:09:12.717Z,76.73
2023-03-01T22:11:43.930Z,60.07
2023-03-01T22:14:13.518Z,71.37
2023-03-01T22:16:43.371Z,150.57
2023-03-01T22:19:10.765Z,290.63
2023-03-01T22:21:43.990Z,59.57
2023-03-01T22:24:12.129Z,61.03
2023-03-01T22:26:43.014Z,52.20
2023-03-01T22:29:27.589Z,51.13
2023-03-01T22:31:58.617Z,71.20
2023-03-01T22:34:25.951Z,72.10
2023-03-01T22:36:53.076Z,51.33
2023-03-01T22:39:21.241Z,65.23
2023-03-01T22:41:49.674Z,46.77
2023-03-01T22:44:22.750Z,63.30
2023-03-01T22:46:50.755Z,66.37
2023-03-01T22:49:18.168Z,39.10
2023-03-01T22:51:47.626Z,66.97
2023-03-01T22:54:16.952Z,60.67
2023-03-01T22:56:45.211Z,54.37
2023-03-01T22:59:15.984Z,63.17
2023-03-01T23:01:48.053Z,67.97
2023-03-01T23:04:19.716Z,73.23
2023-03-01T23:06:56.217Z,50.23
2023-03-01T23:09:30.747Z,50.23
2023-03-01T23:12:00.713Z,86.73
2023-03-01T23:14:31.570Z,51.03
2023-03-01T23:17:01.473Z,65.47
2023-03-01T23:19:30.079Z,53.73
2023-03-01T23:21:57.923Z,56.73
2023-03-01T23:24:31.267Z,57.10
2023-03-01T23:27:00.815Z,100.00
2023-03-01T23:29:27.871Z,114.67
2023-03-01T23:31:59.090Z,60.13
2023-03-01T23:34:27.096Z,95.23
2023-03-01T23:36:55.611Z,63.57
2023-03-01T23:39:22.728Z,58.17
2023-03-01T23:41:49.915Z,93.80
2023-03-01T23:44:20.727Z,106.90
2023-03-01T23:46:49.992Z,91.17
2023-03-01T23:49:21.950Z,66.50
2023-03-01T23:51:49.619Z,76.37
2023-03-01T23:54:20.177Z,65.50
2023-03-01T23:56:48.122Z,113.03
2023-03-01T23:59:18.649Z,45.83
